createdAt,value
2023-05-02T00:01:41.212Z,13.40
2023-05-02T00:04:16.764Z,13.40
2023-05-02T00:06:52.113Z,13.30
2023-05-02T00:09:28.104Z,13.20
2023-05-02T00:12:08.945Z,13.10
2023-05-02T00:14:48.753Z,13.10
2023-05-02T00:17:24.390Z,13.00
2023-05-02T00:20:02.823Z,12.90
2023-05-02T00:22:43.009Z,12.90
2023-05-02T00:25:29.083Z,12.80
2023-05-02T00:28:15.433Z,12.70
2023-05-02T00:31:04.563Z,12.70
2023-05-02T00:33:43.910Z,12.70
2023-05-02T00:36:19.318Z,12.60
2023-05-02T00:38:59.364Z,12.60
2023-05-02T00:41:36.166Z,12.50
2023-05-02T00:44:17.759Z,12.50
2023-05-02T00:46:54.996Z,12.50
2023-05-02T00:49:35.811Z,12.40
2023-05-02T00:52:16.578Z,12.40
2023-05-02T00:54:56.968Z,12.40
2023-05-02T00:57:39.712Z,12.40
2023-05-02T01:00:14.260Z,12.40
2023-05-02T01:03:00.316Z,12.30
2023-05-02T01:05:45.986Z,12.40
2023-05-02T01:08:24.958Z,12.30
2023-05-02T01:11:02.659Z,12.30
2023-05-02T01:13:36.247Z,12.20
2023-05-02T01:16:12.430Z,12.20
2023-05-02T01:18:53.468Z,12.10
2023-05-02T01:21:34.526Z,12.10
2023-05-02T01:24:15.124Z,12.10
2023-05-02T01:26:56.269Z,12.10
2023-05-02T01:29:35.453Z,12.10
2023-05-02T01:32:14.487Z,12.10
2023-05-02T01:34:54.917Z,12.10
2023-05-02T01:37:31.099Z,12.20
2023-05-02T01:40:09.994Z,12.10
2023-05-02T01:42:47.028Z,12.20
2023-05-02T01:45:36.846Z,12.20
2023-05-02T01:48:18.601Z,12.20
2023-05-02T01:50:54.954Z,12.20
2023-05-02T01:53:39.499Z,12.20
2023-05-02T01:56:19.233Z,12.20
2023-05-02T01:58:57.475Z,12.20
2023-05-02T02:01:38.412Z,12.20
2023-05-02T02:04:16.062Z,12.20
2023-05-02T02:06:56.754Z,12.10
2023-05-02T02:09:34.748Z,12.10
2023-05-02T02:12:12.430Z,12.10
2023-05-02T02:14:50.900Z,12.10
2023-05-02T02:17:42.021Z,12.10
2023-05-02T02:20:19.578Z,12.00
2023-05-02T02:23:04.194Z,12.00
2023-05-02T02:25:42.659Z,12.00
2023-05-02T02:28:28.578Z,12.00
2023-05-02T02:31:12.710Z,11.90
2023-05-02T02:34:04.038Z,11.90
2023-05-02T02:36:42.536Z,11.80
2023-05-02T02:39:22.778Z,11.80
2023-05-02T02:42:09.393Z,11.80
2023-05-02T02:44:48.691Z,11.80
2023-05-02T02:47:27.911Z,11.80
2023-05-02T02:50:19.011Z,11.80
2023-05-02T02:52:53.298Z,11.80
2023-05-02T02:55:43.866Z,11.70
2023-05-02T02:58:32.000Z,11.70
2023-05-02T03:01:11.932Z,11.70
2023-05-02T03:03:49.965Z,11.60
2023-05-02T03:06:32.608Z,11.50
2023-05-02T03:09:09.943Z,11.50
2023-05-02T03:11:49.597Z,11.50
2023-05-02T03:14:28.573Z,11.50
2023-05-02T03:17:10.336Z,11.60
2023-05-02T03:19:58.767Z,11.50
2023-05-02T03:22:40.529Z,11.60
2023-05-02T03:25:15.455Z,11.60
2023-05-02T03:27:55.324Z,11.60
2023-05-02T03:30:31.554Z,11.60
2023-05-02T03:33:09.324Z,11.70
2023-05-02T03:35:45.929Z,11.70
2023-05-02T03:38:29.983Z,11.70
2023-05-02T03:41:11.782Z,11.70
2023-05-02T03:43:47.951Z,11.80
2023-05-02T03:46:27.504Z,11.80
2023-05-02T03:49:08.978Z,11.80
2023-05-02T03:51:50.552Z,11.80
2023-05-02T03:54:39.893Z,11.90
2023-05-02T03:57:16.688Z,12.00
2023-05-02T03:59:54.966Z,11.90
2023-05-02T04:02:41.754Z,12.00
2023-05-02T04:05:26.326Z,12.00
2023-05-02T04:08:05.571Z,12.10
2023-05-02T04:10:41.413Z,12.10
2023-05-02T04:13:27.741Z,12.20
2023-05-02T04:16:14.625Z,12.20
2023-05-02T04:18:56.830Z,12.20
2023-05-02T04:21:44.081Z,12.20
2023-05-02T04:24:20.584Z,12.20
2023-05-02T04:26:58.221Z,12.30
2023-05-02T04:29:42.380Z,12.30
2023-05-02T04:32:23.411Z,12.30
2023-05-02T04:35:08.732Z,12.40
2023-05-02T04:38:06.584Z,12.30
2023-05-02T04:40:50.952Z,12.30
2023-05-02T04:43:33.636Z,12.40
2023-05-02T04:46:19.778Z,12.40
2023-05-02T04:49:02.725Z,12.40
2023-05-02T04:51:46.118Z,12.40
2023-05-02T04:54:40.507Z,12.40
2023-05-02T04:57:21.317Z,12.40
2023-05-02T05:00:03.008Z,12.40
2023-05-02T05:02:44.897Z,12.50
2023-05-02T05:05:24.811Z,12.50
2023-05-02T05:07:59.600Z,12.50
2023-05-02T05:10:41.561Z,12.50
2023-05-02T05:13:18.813Z,12.50
2023-05-02T05:15:58.498Z,12.60
2023-05-02T05:18:44.060Z,12.60
2023-05-02T05:21:29.456Z,12.60
2023-05-02T05:24:10.335Z,12.60
2023-05-02T05:26:51.184Z,12.70
2023-05-02T05:29:29.827Z,12.70
2023-05-02T05:32:10.083Z,12.70
2023-05-02T05:34:48.609Z,12.80
2023-05-02T05:37:29.555Z,12.70
2023-05-02T05:40:10.039Z,12.80
2023-05-02T05:42:50.329Z,12.80
2023-05-02T05:45:33.243Z,12.80
2023-05-02T05:48:17.518Z,12.80
2023-05-02T05:51:01.951Z,12.90
2023-05-02T05:53:37.825Z,12.90
2023-05-02T05:56:18.481Z,12.90
2023-05-02T05:59:06.621Z,12.90
2023-05-02T06:01:42.962Z,12.90
2023-05-02T06:04:21.897Z,13.00
2023-05-02T06:06:59.417Z,13.00
2023-05-02T06:09:54.177Z,13.10
2023-05-02T06:12:56.335Z,13.10
2023-05-02T06:15:44.125Z,13.20
2023-05-02T06:21:12.752Z,13.30
2023-05-02T06:23:50.735Z,13.40
2023-05-02T06:26:38.757Z,13.50
2023-05-02T06:29:15.097Z,13.50
2023-05-02T06:31:53.293Z,13.60
2023-05-02T06:34:29.346Z,13.70
2023-05-02T06:37:09.016Z,13.80
2023-05-02T06:39:48.090Z,13.90
2023-05-02T06:42:27.751Z,14.00
2023-05-02T06:45:05.047Z,14.10
2023-05-02T06:47:45.775Z,14.20
2023-05-02T06:50:24.799Z,14.30
2023-05-02T06:53:00.083Z,14.40
2023-05-02T06:55:43.110Z,14.50
2023-05-02T06:58:28.969Z,14.60
2023-05-02T07:01:09.186Z,14.80
2023-05-02T07:03:48.926Z,15.00
2023-05-02T07:06:42.013Z,15.20
2023-05-02T07:09:19.393Z,15.30
2023-05-02T07:11:56.223Z,15.50
2023-05-02T07:14:35.224Z,15.60
2023-05-02T07:17:17.080Z,15.70
2023-05-02T07:19:49.124Z,15.90
2023-05-02T07:22:28.842Z,16.10
2023-05-02T07:25:05.522Z,16.20
2023-05-02T07:27:47.208Z,16.40
2023-05-02T07:31:18.932Z,16.60
2023-05-02T07:40:26.796Z,17.10
2023-05-02T07:43:33.873Z,17.10
2023-05-02T07:46:33.346Z,17.20
2023-05-02T07:49:28.254Z,17.30
2023-05-02T07:52:22.050Z,17.40
2023-05-02T08:11:47.216Z,17.80
2023-05-02T08:14:39.107Z,17.90
2023-05-02T08:20:08.589Z,18.00
2023-05-02T08:23:00.284Z,18.00
2023-05-02T08:25:42.008Z,18.10
2023-05-02T08:28:20.562Z,18.10
2023-05-02T08:31:46.734Z,18.10
2023-05-02T08:44:54.726Z,18.20
2023-05-02T08:47:58.578Z,18.20
2023-05-02T08:50:56.918Z,18.30
2023-05-02T08:56:42.742Z,18.30
2023-05-02T08:59:33.510Z,18.20
2023-05-02T09:02:32.501Z,18.30
2023-05-02T09:05:14.268Z,18.20
2023-05-02T09:07:53.033Z,18.20
2023-05-02T09:10:30.817Z,18.30
2023-05-02T09:20:04.362Z,18.30
2023-05-02T09:22:55.369Z,18.30
2023-05-02T09:28:57.010Z,18.40
2023-05-02T09:37:24.023Z,18.60
2023-05-02T09:40:36.413Z,18.60
2023-05-02T09:43:23.233Z,18.50
2023-05-02T09:46:08.292Z,18.60
2023-05-02T09:49:14.715Z,18.60
2023-05-02T09:51:58.737Z,18.60
2023-05-02T09:55:08.361Z,18.60
2023-05-02T09:57:42.952Z,18.70
2023-05-02T10:00:25.619Z,18.60
2023-05-02T10:03:05.011Z,18.70
2023-05-02T10:05:49.389Z,18.70
2023-05-02T10:08:32.156Z,18.90
2023-05-02T10:11:17.432Z,18.90
2023-05-02T10:14:08.461Z,19.00
2023-05-02T10:16:52.058Z,19.10
2023-05-02T10:19:34.251Z,19.10
2023-05-02T10:22:32.700Z,19.30
2023-05-02T10:25:12.447Z,19.40
2023-05-02T10:27:54.230Z,19.50
2023-05-02T10:30:35.641Z,19.70
2023-05-02T10:33:22.409Z,19.80
2023-05-02T10:36:02.001Z,19.90
2023-05-02T10:48:18.456Z,20.10
2023-05-02T11:17:36.209Z,20.70
2023-05-02T11:23:43.803Z,20.80
2023-05-02T11:26:52.542Z,20.80
2023-05-02T11:30:02.141Z,20.80
2023-05-02T11:33:04.837Z,20.70
2023-05-02T11:48:02.311Z,20.60
2023-05-02T11:50:54.855Z,20.60
2023-05-02T11:53:41.968Z,20.70
2023-05-02T11:56:38.482Z,20.70
2023-05-02T12:09:32.285Z,20.70
2023-05-02T12:12:30.232Z,20.80
2023-05-02T12:15:06.136Z,20.80
2023-05-02T12:18:01.622Z,20.80
2023-05-02T12:36:53.996Z,20.00
2023-05-02T12:39:42.081Z,19.60
2023-05-02T12:42:21.828Z,18.70
2023-05-02T12:45:01.381Z,18.10
2023-05-02T12:47:48.324Z,17.60
2023-05-02T12:50:24.396Z,17.10
2023-05-02T12:53:20.695Z,16.80
2023-05-02T12:56:10.972Z,16.60
2023-05-02T12:58:54.081Z,16.50
2023-05-02T13:01:40.373Z,16.40
2023-05-02T13:04:21.547Z,16.40
2023-05-02T13:06:59.242Z,16.30
2023-05-02T13:09:35.055Z,16.30
2023-05-02T13:12:20.021Z,16.20
2023-05-02T13:14:57.349Z,16.20
2023-05-02T13:17:41.576Z,16.20
2023-05-02T13:20:18.083Z,16.20
2023-05-02T13:22:58.750Z,16.20
2023-05-02T13:25:40.142Z,16.20
2023-05-02T13:28:29.692Z,16.10
2023-05-02T13:31:21.334Z,16.10
2023-05-02T13:34:03.511Z,16.20
2023-05-02T13:43:17.182Z,16.40
2023-05-02T13:48:58.082Z,16.50
2023-05-02T21:42:17.728Z,13.30
2023-05-02T23:06:53.184Z,12.40
2023-05-02T23:09:55.125Z,12.40
